Time;durP1;ratioP1;P1;durP2;ratioP2;P2;SDS_P1;SDS_P2;PMS_P1;PMS_P2;Temp;Humidity;BMP_temperature;BMP_pressure;BME280_temperature;BME280_humidity;BME280_pressure;Samples;Min_cycle;Max_cycle;Signal;HPM_P1;HPM_P2
2023/10/02 00:01:47;;;;;;;20.23;10.32;;;;;;;;;;5015464;28;20077;-75
2023/10/02 00:04:19;;;;;;;24.55;11.13;;;;;;;;;;5026177;28;20416;-75
2023/10/02 00:06:50;;;;;;;22.90;11.60;;;;;;;;;;5011638;28;20128;-75
2023/10/02 00:09:20;;;;;;;19.20;10.55;;;;;;;;;;5012853;28;20124;-75
2023/10/02 00:11:47;;;;;;;20.38;10.90;;;;;;;;;;5011859;28;20092;-75
2023/10/02 00:14:23;;;;;;;21.17;10.68;;;;;;;;;;5012311;28;20406;-75
2023/10/02 00:19:27;;;;;;;19.13;10.82;;;;;;;;;;5012129;28;20529;-75
2023/10/02 00:22:03;;;;;;;23.05;12.35;;;;;;;;;;5011183;28;20045;-75
2023/10/02 00:24:32;;;;;;;22.33;12.18;;;;;;;;;;5016412;28;20053;-75
2023/10/02 00:26:58;;;;;;;21.52;11.93;;;;;;;;;;5032250;28;20098;-75
2023/10/02 00:29:28;;;;;;;22.83;11.65;;;;;;;;;;5012292;28;20046;-75
2023/10/02 00:31:54;;;;;;;22.70;12.15;;;;;;;;;;5023888;28;20046;-75
2023/10/02 00:34:32;;;;;;;22.90;11.65;;;;;;;;;;5018855;28;20061;-75
2023/10/02 00:37:15;;;;;;;23.30;12.10;;;;;;;;;;5018856;28;20065;-75
2023/10/02 00:39:47;;;;;;;24.48;12.35;;;;;;;;;;5014428;28;20042;-75
2023/10/02 00:42:16;;;;;;;21.90;12.20;;;;;;;;;;5031271;28;20038;-75
2023/10/02 00:44:52;;;;;;;21.85;12.38;;;;;;;;;;5020536;28;20096;-75
2023/10/02 00:50:07;;;;;;;21.23;12.50;;;;;;;;;;5016472;28;20136;-75
2023/10/02 00:52:34;;;;;;;22.92;12.25;;;;;;;;;;5012286;28;20398;-75
2023/10/02 00:55:05;;;;;;;25.20;13.30;;;;;;;;;;5013062;28;20049;-75
2023/10/02 00:57:35;;;;;;;24.25;12.27;;;;;;;;;;5021443;28;20088;-75
2023/10/02 01:00:05;;;;;;;22.52;12.70;;;;;;;;;;5029301;28;20056;-75
2023/10/02 01:02:33;;;;;;;21.13;12.73;;;;;;;;;;5020828;28;20517;-75
2023/10/02 01:05:00;;;;;;;25.70;13.55;;;;;;;;;;5014296;28;20089;-74
2023/10/02 01:07:26;;;;;;;26.33;13.27;;;;;;;;;;5017521;28;20050;-75
2023/10/02 01:10:07;;;;;;;25.67;13.60;;;;;;;;;;5012867;28;20049;-75
2023/10/02 01:12:49;;;;;;;23.80;13.00;;;;;;;;;;5012526;28;20470;-74
2023/10/02 01:15:16;;;;;;;26.08;14.02;;;;;;;;;;5017252;28;20406;-75
2023/10/02 01:17:47;;;;;;;23.23;13.75;;;;;;;;;;4994341;28;20054;-75
2023/10/02 01:23:17;;;;;;;23.52;14.40;;;;;;;;;;5012456;28;20049;-75
2023/10/02 01:25:47;;;;;;;22.88;14.43;;;;;;;;;;5019000;28;20076;-75
2023/10/02 01:28:15;;;;;;;26.95;15.20;;;;;;;;;;5021749;28;20049;-75
2023/10/02 01:30:42;;;;;;;25.35;14.70;;;;;;;;;;5023451;28;20060;-75
2023/10/02 01:35:48;;;;;;;26.88;14.68;;;;;;;;;;5011251;28;20056;-75
2023/10/02 01:38:16;;;;;;;27.10;15.48;;;;;;;;;;5017595;28;20081;-75
2023/10/02 01:40:43;;;;;;;26.05;15.15;;;;;;;;;;5021015;28;20045;-75
2023/10/02 01:43:12;;;;;;;26.17;15.45;;;;;;;;;;5021509;28;20115;-75
2023/10/02 01:45:45;;;;;;;26.33;14.75;;;;;;;;;;5014961;28;20053;-75
2023/10/02 01:48:15;;;;;;;25.50;14.70;;;;;;;;;;5020564;28;20041;-75
2023/10/02 01:50:45;;;;;;;28.85;15.55;;;;;;;;;;5011140;28;20057;-75
2023/10/02 01:53:30;;;;;;;25.15;14.75;;;;;;;;;;5011930;28;20049;-75
2023/10/02 01:56:00;;;;;;;28.10;16.08;;;;;;;;;;5016818;28;20049;-74
2023/10/02 01:58:29;;;;;;;25.10;14.40;;;;;;;;;;4998987;28;20449;-75
2023/10/02 02:00:57;;;;;;;27.10;15.57;;;;;;;;;;5011525;28;20126;-74
2023/10/02 02:03:23;;;;;;;24.40;14.88;;;;;;;;;;5022060;28;20164;-75
2023/10/02 02:05:53;;;;;;;23.17;13.95;;;;;;;;;;5012152;28;20410;-74
2023/10/02 02:08:22;;;;;;;26.00;15.25;;;;;;;;;;5024456;28;20125;-75
2023/10/02 02:10:50;;;;;;;26.20;15.48;;;;;;;;;;5024910;28;20045;-75
2023/10/02 02:13:16;;;;;;;28.13;15.88;;;;;;;;;;5031925;28;20452;-74
2023/10/02 02:16:06;;;;;;;25.45;14.95;;;;;;;;;;5022749;28;20488;-75
2023/10/02 02:18:33;;;;;;;27.27;15.57;;;;;;;;;;5030091;28;20091;-75
2023/10/02 02:20:59;;;;;;;24.25;15.93;;;;;;;;;;5017113;28;20462;-75
2023/10/02 02:23:30;;;;;;;30.23;15.52;;;;;;;;;;5022803;28;20042;-75
2023/10/02 02:25:56;;;;;;;26.98;16.30;;;;;;;;;;5015796;28;20050;-75
2023/10/02 02:28:22;;;;;;;29.48;15.63;;;;;;;;;;5015835;28;20192;-75
2023/10/02 02:30:48;;;;;;;26.77;14.60;;;;;;;;;;5018849;28;20049;-75
2023/10/02 02:33:15;;;;;;;30.35;16.48;;;;;;;;;;5012961;28;20427;-75
2023/10/02 02:35:44;;;;;;;28.27;16.70;;;;;;;;;;5014360;28;20045;-74
2023/10/02 02:38:15;;;;;;;25.48;15.63;;;;;;;;;;5015479;28;20402;-75
2023/10/02 02:40:42;;;;;;;29.08;15.90;;;;;;;;;;5010700;28;20401;-74
2023/10/02 02:43:18;;;;;;;26.35;16.88;;;;;;;;;;5023907;28;20103;-75
2023/10/02 02:45:45;;;;;;;30.20;16.20;;;;;;;;;;5015156;28;20494;-75
2023/10/02 02:48:12;;;;;;;27.63;15.98;;;;;;;;;;5014000;28;20086;-75
2023/10/02 02:50:42;;;;;;;32.67;16.00;;;;;;;;;;5016179;28;20528;-75
2023/10/02 02:53:22;;;;;;;27.92;16.65;;;;;;;;;;5017154;28;20042;-75
2023/10/02 02:58:45;;;;;;;26.15;15.90;;;;;;;;;;5020098;28;20061;-75
2023/10/02 03:01:21;;;;;;;27.17;16.30;;;;;;;;;;5021995;28;20129;-75
2023/10/02 03:03:48;;;;;;;27.17;15.95;;;;;;;;;;5014822;28;20119;-75
2023/10/02 03:06:18;;;;;;;30.20;16.58;;;;;;;;;;5027937;28;20402;-75
2023/10/02 03:08:45;;;;;;;30.25;16.80;;;;;;;;;;5014832;28;20135;-75
2023/10/02 03:11:11;;;;;;;29.88;17.05;;;;;;;;;;5013302;28;20494;-75
2023/10/02 03:13:41;;;;;;;30.67;16.80;;;;;;;;;;5020807;28;20455;-75
2023/10/02 03:16:18;;;;;;;25.50;16.60;;;;;;;;;;5013338;28;20049;-75
2023/10/02 03:18:45;;;;;;;27.52;16.27;;;;;;;;;;5013155;28;20107;-74
2023/10/02 03:21:15;;;;;;;30.23;17.80;;;;;;;;;;5012938;28;20045;-75
2023/10/02 03:23:44;;;;;;;27.13;16.95;;;;;;;;;;5021194;28;20042;-75
2023/10/02 03:26:27;;;;;;;27.85;16.50;;;;;;;;;;5022191;28;20343;-75
2023/10/02 03:29:02;;;;;;;31.17;17.33;;;;;;;;;;5017422;28;20463;-75
2023/10/02 03:31:34;;;;;;;;;;;;;;;;;;5030631;28;20045;-75
2023/10/02 03:36:59;;;;;;;29.55;16.63;;;;;;;;;;5012380;28;20046;-75
2023/10/02 03:42:13;;;;;;;31.23;17.75;;;;;;;;;;5013624;28;20050;-76
2023/10/02 03:44:41;;;;;;;28.88;17.02;;;;;;;;;;5021289;28;20052;-75
2023/10/02 03:47:10;;;;;;;28.63;17.30;;;;;;;;;;5013556;28;20128;-74
2023/10/02 03:49:38;;;;;;;30.45;17.65;;;;;;;;;;5012865;28;20054;-75
2023/10/02 03:52:05;;;;;;;28.92;17.50;;;;;;;;;;5014909;28;20068;-75
2023/10/02 03:54:33;;;;;;;29.27;17.20;;;;;;;;;;5017583;28;20053;-75
2023/10/02 03:57:01;;;;;;;30.45;18.50;;;;;;;;;;5018139;28;20116;-75
2023/10/02 03:59:31;;;;;;;29.95;17.02;;;;;;;;;;5013777;28;20058;-75
2023/10/02 04:02:24;;;;;;;29.27;17.58;;;;;;;;;;5012668;28;20046;-75
2023/10/02 04:04:46;;;;;;;33.78;18.52;;;;;;;;;;5012107;28;20058;-75
2023/10/02 04:07:12;;;;;;;30.30;17.80;;;;;;;;;;5012456;28;20165;-75
2023/10/02 04:09:38;;;;;;;27.73;16.90;;;;;;;;;;5015855;28;20049;-75
2023/10/02 04:12:05;;;;;;;28.88;17.42;;;;;;;;;;5027098;28;20049;-75
2023/10/02 04:14:31;;;;;;;27.75;16.65;;;;;;;;;;5017369;28;20088;-75
2023/10/02 04:17:20;;;;;;;27.30;16.65;;;;;;;;;;5022254;28;20061;-75
2023/10/02 04:19:51;;;;;;;29.10;17.98;;;;;;;;;;5012185;28;20046;-76
2023/10/02 04:22:22;;;;;;;28.92;17.38;;;;;;;;;;5019900;28;20394;-75
2023/10/02 04:24:54;;;;;;;30.67;18.33;;;;;;;;;;5007268;28;20080;-74
2023/10/02 04:27:28;;;;;;;29.42;17.42;;;;;;;;;;5015856;28;20042;-75
2023/10/02 04:30:37;;;;;;;31.88;17.70;;;;;;;;;;5011511;28;20054;-74
2023/10/02 04:32:49;;;;;;;25.45;16.20;;;;;;;;;;5023073;28;20081;-75
2023/10/02 04:38:07;;;;;;;27.75;17.17;;;;;;;;;;5022541;28;20522;-74
2023/10/02 04:40:51;;;;;;;28.85;17.77;;;;;;;;;;5019253;28;20056;-75
2023/10/02 04:43:25;;;;;;;26.50;17.08;;;;;;;;;;5021283;28;20041;-74
2023/10/02 04:46:08;;;;;;;27.45;17.73;;;;;;;;;;5011236;28;20045;-75
2023/10/02 04:48:42;;;;;;;29.15;17.52;;;;;;;;;;5013109;28;20081;-75
2023/10/02 04:51:09;;;;;;;29.88;17.15;;;;;;;;;;5011579;28;20156;-75
2023/10/02 04:53:35;;;;;;;31.15;18.17;;;;;;;;;;5024133;28;20129;-75
2023/10/02 04:56:18;;;;;;;27.98;18.08;;;;;;;;;;5036978;28;20042;-75
2023/10/02 04:58:51;;;;;;;30.95;18.00;;;;;;;;;;5011208;28;20156;-75
2023/10/02 05:01:24;;;;;;;31.38;18.23;;;;;;;;;;5011724;28;20437;-75
2023/10/02 05:03:53;;;;;;;27.00;17.77;;;;;;;;;;5011166;28;20042;-75
2023/10/02 05:06:52;;;;;;;30.05;18.58;;;;;;;;;;5012503;28;20129;-75
2023/10/02 05:09:19;;;;;;;27.00;17.05;;;;;;;;;;5010356;28;20045;-75
2023/10/02 05:11:52;;;;;;;27.70;17.95;;;;;;;;;;5011312;28;20453;-75
2023/10/02 05:14:47;;;;;;;29.20;18.35;;;;;;;;;;5018496;28;20112;-74
2023/10/02 05:17:17;;;;;;;28.15;17.55;;;;;;;;;;5012584;28;20045;-74
2023/10/02 05:22:30;;;;;;;30.05;18.08;;;;;;;;;;5012152;28;20046;-75
2023/10/02 05:24:59;;;;;;;32.25;18.55;;;;;;;;;;5018155;28;20417;-75
2023/10/02 05:27:36;;;;;;;29.20;18.13;;;;;;;;;;5024796;28;20034;-75
2023/10/02 05:30:17;;;;;;;32.97;18.73;;;;;;;;;;5016421;28;20053;-74
2023/10/02 05:32:44;;;;;;;30.73;18.73;;;;;;;;;;5016126;28;20054;-75
2023/10/02 05:37:40;;;;;;;30.42;18.08;;;;;;;;;;5010929;28;20050;-74
2023/10/02 05:43:55;;;;;;;28.17;18.25;;;;;;;;;;5013132;28;20057;-75
2023/10/02 05:51:12;;;;;;;32.60;18.83;;;;;;;;;;5010997;28;20159;-74
2023/10/02 05:53:53;;;;;;;31.08;18.35;;;;;;;;;;5022915;28;20056;-74
2023/10/02 05:56:19;;;;;;;28.55;18.08;;;;;;;;;;5029122;28;20042;-74
2023/10/02 05:58:49;;;;;;;28.48;18.35;;;;;;;;;;5031239;28;20041;-75
2023/10/02 06:01:26;;;;;;;30.10;18.30;;;;;;;;;;5030129;28;20046;-74
2023/10/02 06:04:00;;;;;;;28.92;18.58;;;;;;;;;;5030718;28;20049;-75
2023/10/02 06:06:27;;;;;;;30.92;17.70;;;;;;;;;;5025535;28;20511;-75
2023/10/02 06:09:00;;;;;;;29.23;17.77;;;;;;;;;;5029439;28;20046;-74
2023/10/02 06:11:27;;;;;;;31.02;18.42;;;;;;;;;;5015321;28;20049;-75
2023/10/02 06:14:09;;;;;;;31.67;18.40;;;;;;;;;;5027751;28;20082;-75
2023/10/02 06:16:40;;;;;;;28.58;17.35;;;;;;;;;;5014391;28;20042;-75
2023/10/02 06:19:07;;;;;;;31.05;18.08;;;;;;;;;;5019261;28;20053;-75
2023/10/02 06:21:45;;;;;;;29.27;17.90;;;;;;;;;;5019114;28;20038;-75
2023/10/02 06:24:12;;;;;;;29.52;17.67;;;;;;;;;;5020450;28;20091;-75
2023/10/02 06:26:52;;;;;;;29.48;17.75;;;;;;;;;;5021888;28;20072;-75
2023/10/02 06:29:22;;;;;;;30.92;18.08;;;;;;;;;;5023148;28;20045;-75
2023/10/02 06:31:51;;;;;;;29.60;17.58;;;;;;;;;;5019433;28;20077;-75
2023/10/02 06:34:19;;;;;;;28.77;17.85;;;;;;;;;;5015728;28;20136;-75
2023/10/02 06:37:02;;;;;;;32.88;18.13;;;;;;;;;;5015709;28;20041;-75
2023/10/02 06:39:29;;;;;;;31.25;18.05;;;;;;;;;;5014980;28;20485;-75
2023/10/02 06:42:04;;;;;;;29.73;17.67;;;;;;;;;;5015943;28;20556;-75
2023/10/02 06:44:35;;;;;;;30.27;18.48;;;;;;;;;;5024114;28;20498;-77
2023/10/02 06:47:04;;;;;;;29.77;17.70;;;;;;;;;;5029467;28;20046;-74
2023/10/02 06:49:33;;;;;;;30.80;17.80;;;;;;;;;;5010855;28;20046;-74
2023/10/02 06:52:11;;;;;;;27.60;17.23;;;;;;;;;;4961921;28;1085999;-74
2023/10/02 06:54:43;;;;;;;29.48;17.10;;;;;;;;;;5016043;28;20402;-74
2023/10/02 06:57:11;;;;;;;29.17;17.60;;;;;;;;;;5039180;28;20050;-74
2023/10/02 06:59:39;;;;;;;29.17;18.00;;;;;;;;;;5024806;28;20041;-77
2023/10/02 07:02:06;;;;;;;28.88;17.35;;;;;;;;;;5025153;28;20372;-74
2023/10/02 07:04:36;;;;;;;30.77;18.27;;;;;;;;;;5026624;28;20056;-74
2023/10/02 07:07:07;;;;;;;30.55;18.05;;;;;;;;;;5014833;28;20060;-74
2023/10/02 07:09:36;;;;;;;29.25;18.17;;;;;;;;;;5013875;28;20045;-74
2023/10/02 07:12:09;;;;;;;28.75;16.23;;;;;;;;;;5013007;28;20041;-74
2023/10/02 07:14:38;;;;;;;31.83;17.50;;;;;;;;;;5022938;28;20041;-74
2023/10/02 07:17:12;;;;;;;29.08;17.67;;;;;;;;;;5015566;28;20125;-74
2023/10/02 07:19:46;;;;;;;29.67;17.67;;;;;;;;;;5013497;28;20399;-77
2023/10/02 07:22:16;;;;;;;27.75;16.85;;;;;;;;;;5015119;28;20121;-75
2023/10/02 07:24:45;;;;;;;28.42;17.02;;;;;;;;;;5012575;28;20056;-77
2023/10/02 07:27:22;;;;;;;30.52;17.52;;;;;;;;;;5012888;28;20112;-75
2023/10/02 07:29:55;;;;;;;29.85;16.58;;;;;;;;;;5014359;28;20073;-75
2023/10/02 07:32:22;;;;;;;27.50;16.95;;;;;;;;;;5014022;28;20057;-75
2023/10/02 07:34:50;;;;;;;29.38;16.73;;;;;;;;;;5013962;28;20041;-75
2023/10/02 07:37:21;;;;;;;28.83;16.25;;;;;;;;;;5026013;28;20059;-75
2023/10/02 07:39:56;;;;;;;28.52;17.63;;;;;;;;;;5014486;28;20463;-74
2023/10/02 07:42:23;;;;;;;27.58;17.00;;;;;;;;;;5013921;28;20042;-74
2023/10/02 07:44:50;;;;;;;28.73;17.08;;;;;;;;;;5020594;28;20343;-75
2023/10/02 07:47:22;;;;;;;26.40;16.10;;;;;;;;;;5018151;28;20033;-75
2023/10/02 07:49:51;;;;;;;25.30;15.85;;;;;;;;;;5012550;28;20049;-75
2023/10/02 07:52:35;;;;;;;26.88;16.08;;;;;;;;;;5027875;28;20050;-74
2023/10/02 07:55:01;;;;;;;27.52;15.10;;;;;;;;;;5017348;28;20486;-75
2023/10/02 07:57:30;;;;;;;25.67;15.45;;;;;;;;;;5026112;28;20057;-74
2023/10/02 07:59:57;;;;;;;26.90;16.35;;;;;;;;;;5013278;28;20049;-74
2023/10/02 08:02:23;;;;;;;26.67;16.52;;;;;;;;;;5022561;28;20057;-75
2023/10/02 08:04:51;;;;;;;28.00;16.90;;;;;;;;;;5024000;28;20056;-74
2023/10/02 08:07:20;;;;;;;30.13;16.05;;;;;;;;;;5021065;28;20045;-75
2023/10/02 08:09:52;;;;;;;29.58;16.85;;;;;;;;;;5022236;28;20056;-75
2023/10/02 08:12:30;;;;;;;28.60;15.73;;;;;;;;;;5015547;28;20072;-75
2023/10/02 08:15:05;;;;;;;30.20;15.80;;;;;;;;;;5028047;28;20049;-73
2023/10/02 08:20:15;;;;;;;28.75;16.20;;;;;;;;;;5020577;28;20470;-75
2023/10/02 08:22:45;;;;;;;29.67;16.25;;;;;;;;;;5011543;28;20061;-74
2023/10/02 08:25:13;;;;;;;27.13;15.45;;;;;;;;;;5021731;28;20192;-75
2023/10/02 08:27:46;;;;;;;26.35;15.13;;;;;;;;;;5022117;28;20195;-75
2023/10/02 08:30:27;;;;;;;27.67;15.55;;;;;;;;;;5011538;28;20429;-75
2023/10/02 08:32:54;;;;;;;26.52;15.05;;;;;;;;;;5019409;28;20074;-75
2023/10/02 08:35:20;;;;;;;31.83;14.93;;;;;;;;;;5012261;28;20121;-75
2023/10/02 08:37:52;;;;;;;29.35;14.77;;;;;;;;;;5012248;28;20060;-74
2023/10/02 08:40:18;;;;;;;25.80;14.95;;;;;;;;;;5013064;28;20138;-75
2023/10/02 08:42:46;;;;;;;25.67;14.32;;;;;;;;;;4999106;28;20077;-75
2023/10/02 08:45:20;;;;;;;24.67;14.00;;;;;;;;;;5021349;28;20049;-75
2023/10/02 08:47:47;;;;;;;22.83;13.65;;;;;;;;;;5016942;28;20172;-75
2023/10/02 08:50:14;;;;;;;26.42;14.73;;;;;;;;;;5017098;28;20065;-75
2023/10/02 08:52:48;;;;;;;29.25;14.98;;;;;;;;;;5017261;28;20367;-75
2023/10/02 08:55:33;;;;;;;31.50;15.50;;;;;;;;;;5022985;28;20041;-75
2023/10/02 08:58:15;;;;;;;37.67;16.45;;;;;;;;;;5021975;28;20116;-75
2023/10/02 09:04:21;;;;;;;30.58;16.60;;;;;;;;;;5036726;28;20111;-75
2023/10/02 09:06:43;;;;;;;31.58;16.73;;;;;;;;;;5020994;28;20041;-75
2023/10/02 09:11:44;;;;;;;30.23;16.55;;;;;;;;;;5021118;28;20049;-76
2023/10/02 09:16:47;;;;;;;30.95;16.08;;;;;;;;;;5022939;28;20064;-76
2023/10/02 09:19:28;;;;;;;30.80;15.32;;;;;;;;;;5018449;28;20049;-75
2023/10/02 09:22:07;;;;;;;37.13;17.13;;;;;;;;;;5022460;28;20046;-75
2023/10/02 09:24:38;;;;;;;28.73;16.00;;;;;;;;;;5012964;28;20426;-75
2023/10/02 09:27:23;;;;;;;30.00;16.15;;;;;;;;;;5021296;28;20425;-76
2023/10/02 09:32:47;;;;;;;26.75;15.48;;;;;;;;;;5011553;28;20081;-75
2023/10/02 09:35:29;;;;;;;29.92;15.95;;;;;;;;;;5019895;28;20517;-75
2023/10/02 09:37:56;;;;;;;26.13;14.75;;;;;;;;;;5018983;28;20054;-75
2023/10/02 09:43:17;;;;;;;30.88;15.32;;;;;;;;;;5012144;28;20046;-75
2023/10/02 09:45:46;;;;;;;27.17;14.85;;;;;;;;;;5010214;28;20053;-75
2023/10/02 09:48:46;;;;;;;28.05;16.00;;;;;;;;;;5021722;28;20120;-76
2023/10/02 09:51:06;;;;;;;29.85;16.23;;;;;;;;;;5009653;28;20054;-76
2023/10/02 09:53:36;;;;;;;32.63;16.63;;;;;;;;;;5019595;28;20081;-75
2023/10/02 09:56:09;;;;;;;29.85;15.27;;;;;;;;;;5014651;28;20042;-75
2023/10/02 09:58:37;;;;;;;27.30;15.40;;;;;;;;;;5018420;28;20069;-82
2023/10/02 10:03:53;;;;;;;26.83;15.30;;;;;;;;;;5010280;28;20085;-83
2023/10/02 10:06:19;;;;;;;26.60;15.02;;;;;;;;;;5013369;28;20049;-83
2023/10/02 10:11:45;;;;;;;28.23;14.98;;;;;;;;;;5008766;28;20050;-82
2023/10/02 10:14:44;;;;;;;25.50;14.68;;;;;;;;;;5007829;28;20046;-82
2023/10/02 10:17:17;;;;;;;25.77;14.25;;;;;;;;;;5006916;28;20160;-82
2023/10/02 10:19:49;;;;;;;26.02;14.65;;;;;;;;;;5008853;28;20050;-82
2023/10/02 10:22:34;;;;;;;25.02;13.88;;;;;;;;;;5010958;28;20050;-83
2023/10/02 10:27:59;;;;;;;23.52;13.55;;;;;;;;;;5009849;28;20050;-82
2023/10/02 11:08:25;;;;;;;29.30;16.58;;;;;;;;;;5027256;28;20147;-82
2023/10/02 11:16:32;;;;;;;28.25;15.80;;;;;;;;;;4919294;29;20059;-81
2023/10/02 11:19:11;;;;;;;25.90;16.05;;;;;;;;;;4932314;28;20050;-80
2023/10/02 11:21:46;;;;;;;27.90;16.27;;;;;;;;;;4911317;29;20081;-78
2023/10/02 11:24:20;;;;;;;27.80;16.23;;;;;;;;;;4922014;29;20179;-79
2023/10/02 11:26:46;;;;;;;28.20;15.65;;;;;;;;;;4925319;29;20063;-78
2023/10/02 11:29:22;;;;;;;26.90;15.18;;;;;;;;;;4920275;29;20202;-73
2023/10/02 11:32:18;;;;;;;27.25;15.10;;;;;;;;;;4925081;29;20051;-74
2023/10/02 11:34:43;;;;;;;26.30;15.43;;;;;;;;;;4943751;28;20059;-74
2023/10/02 11:37:13;;;;;;;26.65;14.43;;;;;;;;;;4913933;29;20047;-74
2023/10/02 11:39:40;;;;;;;23.17;14.77;;;;;;;;;;4925487;29;20106;-74
2023/10/02 11:42:06;;;;;;;25.70;14.82;;;;;;;;;;4927495;29;20079;-74
2023/10/02 11:44:35;;;;;;;31.10;15.43;;;;;;;;;;4937830;28;20129;-75
2023/10/02 11:47:01;;;;;;;24.38;14.88;;;;;;;;;;4939450;28;20452;-74
2023/10/02 11:49:29;;;;;;;26.55;14.70;;;;;;;;;;4943278;29;20059;-75
2023/10/02 11:52:02;;;;;;;25.40;14.27;;;;;;;;;;4930566;28;20176;-74
2023/10/02 11:54:28;;;;;;;24.33;14.38;;;;;;;;;;4915481;29;20080;-75
2023/10/02 11:56:55;;;;;;;25.67;15.05;;;;;;;;;;4939411;28;20071;-74
2023/10/02 11:59:21;;;;;;;26.25;14.35;;;;;;;;;;4932404;28;20559;-75
2023/10/02 12:01:47;;;;;;;28.50;15.80;;;;;;;;;;4917201;29;20080;-75
2023/10/02 12:04:14;;;;;;;26.70;14.30;;;;;;;;;;4943089;28;20163;-74
2023/10/02 12:06:41;;;;;;;26.48;15.40;;;;;;;;;;4933465;28;20044;-73
2023/10/02 12:09:07;;;;;;;24.45;14.55;;;;;;;;;;4932247;28;20063;-74
2023/10/02 12:11:34;;;;;;;26.48;15.95;;;;;;;;;;4931869;29;20073;-76
2023/10/02 12:14:01;;;;;;;29.23;16.27;;;;;;;;;;4934631;29;20083;-75
2023/10/02 12:16:27;;;;;;;25.02;16.05;;;;;;;;;;4928392;28;20489;-75
2023/10/02 12:18:53;;;;;;;27.75;16.00;;;;;;;;;;4932266;29;20413;-75
2023/10/02 12:21:21;;;;;;;28.17;16.75;;;;;;;;;;4943559;28;20069;-75
2023/10/02 12:23:49;;;;;;;25.88;16.85;;;;;;;;;;4915900;28;20043;-76
2023/10/02 12:26:22;;;;;;;29.40;18.17;;;;;;;;;;4925070;29;20051;-75
2023/10/02 12:28:49;;;;;;;30.13;18.73;;;;;;;;;;4942267;28;20057;-76
2023/10/02 12:31:15;;;;;;;28.75;17.85;;;;;;;;;;4943166;28;20467;-73
2023/10/02 12:33:42;;;;;;;32.08;20.05;;;;;;;;;;4914215;29;20126;-74
2023/10/02 12:36:11;;;;;;;30.67;18.45;;;;;;;;;;4923017;28;20088;-73
2023/10/02 12:38:38;;;;;;;29.77;18.95;;;;;;;;;;4915862;29;20043;-74
2023/10/02 12:41:11;;;;;;;28.63;18.52;;;;;;;;;;4922576;29;20058;-74
2023/10/02 12:43:37;;;;;;;29.88;18.70;;;;;;;;;;4915690;29;20050;-75
2023/10/02 12:46:04;;;;;;;29.23;19.10;;;;;;;;;;4925863;29;20094;-73
2023/10/02 12:48:33;;;;;;;30.67;19.08;;;;;;;;;;4926900;29;20122;-74
2023/10/02 12:51:04;;;;;;;32.30;18.95;;;;;;;;;;4942456;28;20051;-75
2023/10/02 12:53:31;;;;;;;31.77;18.77;;;;;;;;;;4935358;28;20127;-74
2023/10/02 12:55:58;;;;;;;30.85;18.45;;;;;;;;;;4917834;29;20139;-75
2023/10/02 12:58:24;;;;;;;31.80;18.48;;;;;;;;;;4932793;29;20499;-75
2023/10/02 13:00:50;;;;;;;32.58;18.88;;;;;;;;;;4919963;28;20063;-75
2023/10/02 13:03:16;;;;;;;31.77;19.58;;;;;;;;;;4929513;29;20490;-75
2023/10/02 13:05:43;;;;;;;28.48;18.17;;;;;;;;;;4945531;29;20051;-75
2023/10/02 13:08:10;;;;;;;33.03;18.40;;;;;;;;;;4940213;28;20047;-75
2023/10/02 13:10:36;;;;;;;30.73;18.63;;;;;;;;;;4936158;28;20054;-75
2023/10/02 13:13:04;;;;;;;28.73;17.73;;;;;;;;;;4922799;29;20055;-75
2023/10/02 13:15:32;;;;;;;29.13;18.10;;;;;;;;;;4941035;28;20543;-75
2023/10/02 13:17:59;;;;;;;29.40;18.75;;;;;;;;;;4939470;29;20050;-75
2023/10/02 13:20:26;;;;;;;29.23;17.85;;;;;;;;;;4920243;29;20058;-72
2023/10/02 13:22:54;;;;;;;29.83;17.00;;;;;;;;;;4945015;28;20534;-73
2023/10/02 13:25:22;;;;;;;29.48;17.30;;;;;;;;;;4941901;28;20047;-72
2023/10/02 13:27:52;;;;;;;27.60;17.20;;;;;;;;;;4943551;28;20035;-72
2023/10/02 13:30:25;;;;;;;28.10;16.98;;;;;;;;;;4918965;29;20102;-72
2023/10/02 13:32:52;;;;;;;28.35;17.35;;;;;;;;;;4942779;28;20123;-72
2023/10/02 13:35:18;;;;;;;27.48;18.25;;;;;;;;;;4938885;28;20067;-72
2023/10/02 13:37:44;;;;;;;26.65;17.27;;;;;;;;;;4944896;28;20051;-72
2023/10/02 13:40:26;;;;;;;28.00;16.90;;;;;;;;;;4941333;29;20047;-72
2023/10/02 13:42:53;;;;;;;28.67;17.70;;;;;;;;;;4914376;29;20055;-72
2023/10/02 13:45:19;;;;;;;27.55;17.10;;;;;;;;;;4914804;29;20071;-72
2023/10/02 13:47:48;;;;;;;29.40;16.90;;;;;;;;;;4926591;29;20515;-72
2023/10/02 13:50:15;;;;;;;29.70;18.25;;;;;;;;;;4913894;29;20062;-73
2023/10/02 13:52:43;;;;;;;24.92;15.70;;;;;;;;;;4914129;29;20114;-72
2023/10/02 13:55:26;;;;;;;29.75;18.10;;;;;;;;;;4926258;28;20066;-73
2023/10/02 13:57:54;;;;;;;28.17;17.17;;;;;;;;;;4913762;29;20050;-73
2023/10/02 14:00:20;;;;;;;26.63;17.73;;;;;;;;;;4917570;28;20051;-72
2023/10/02 14:02:51;;;;;;;28.38;18.27;;;;;;;;;;4926014;29;20464;-72
2023/10/02 14:05:18;;;;;;;27.50;17.17;;;;;;;;;;4930344;29;20121;-72
2023/10/02 14:07:48;;;;;;;29.92;18.13;;;;;;;;;;4935526;28;20051;-73
2023/10/02 14:10:15;;;;;;;27.08;17.45;;;;;;;;;;4946162;28;20142;-72
2023/10/02 14:12:42;;;;;;;28.73;19.27;;;;;;;;;;4940489;28;20069;-69
2023/10/02 14:15:19;;;;;;;28.40;17.95;;;;;;;;;;4931447;28;20075;-69
2023/10/02 14:17:46;;;;;;;30.33;18.73;;;;;;;;;;4931380;29;20066;-69
2023/10/02 14:20:15;;;;;;;28.23;17.55;;;;;;;;;;4914663;29;20058;-68
2023/10/02 14:22:51;;;;;;;31.45;16.98;;;;;;;;;;4931343;28;20441;-69
2023/10/02 14:25:17;;;;;;;32.22;18.30;;;;;;;;;;4913917;29;20061;-69
2023/10/02 14:27:45;;;;;;;26.20;17.08;;;;;;;;;;4925960;29;20047;-69
2023/10/02 14:30:14;;;;;;;28.00;17.55;;;;;;;;;;4917575;29;20456;-68
2023/10/02 14:32:49;;;;;;;27.38;18.23;;;;;;;;;;4915792;29;20134;-69
2023/10/02 14:35:15;;;;;;;28.95;18.42;;;;;;;;;;4939662;28;20102;-68
2023/10/02 14:37:42;;;;;;;30.10;18.08;;;;;;;;;;4946843;29;20318;-69
2023/10/02 14:40:09;;;;;;;28.48;17.33;;;;;;;;;;4930217;29;20079;-69
2023/10/02 14:42:36;;;;;;;28.38;17.15;;;;;;;;;;4930317;28;20312;-69
2023/10/02 14:45:03;;;;;;;27.63;17.58;;;;;;;;;;4933790;29;20059;-69
2023/10/02 14:47:31;;;;;;;28.00;17.88;;;;;;;;;;4917314;28;20054;-69
2023/10/02 14:49:58;;;;;;;27.83;17.23;;;;;;;;;;4933138;29;20043;-69
2023/10/02 14:52:24;;;;;;;27.25;16.27;;;;;;;;;;4940366;28;20051;-69
2023/10/02 14:54:52;;;;;;;25.45;16.50;;;;;;;;;;4929380;29;20114;-67
2023/10/02 14:57:21;;;;;;;27.10;16.20;;;;;;;;;;4925092;29;20477;-68
2023/10/02 14:59:47;;;;;;;25.00;15.88;;;;;;;;;;4913919;29;20066;-68
2023/10/02 15:02:14;;;;;;;25.05;15.52;;;;;;;;;;4930163;29;20043;-69
2023/10/02 15:04:43;;;;;;;23.90;15.15;;;;;;;;;;4932740;29;20097;-69
2023/10/02 15:07:11;;;;;;;25.98;14.93;;;;;;;;;;4913783;29;20043;-68
2023/10/02 15:09:37;;;;;;;25.98;15.25;;;;;;;;;;4912947;28;20465;-69
2023/10/02 15:12:03;;;;;;;23.90;15.48;;;;;;;;;;4926228;29;20123;-68
2023/10/02 15:14:34;;;;;;;27.88;15.98;;;;;;;;;;4939926;28;20436;-68
2023/10/02 15:17:00;;;;;;;26.77;16.33;;;;;;;;;;4915726;29;20052;-69
2023/10/02 15:19:29;;;;;;;28.25;15.00;;;;;;;;;;4930512;28;20047;-68
2023/10/02 15:21:56;;;;;;;25.63;15.00;;;;;;;;;;4929289;28;20588;-69
2023/10/02 15:24:24;;;;;;;27.63;16.52;;;;;;;;;;4937772;28;20491;-69
2023/10/02 15:26:50;;;;;;;29.23;17.52;;;;;;;;;;4947204;29;20047;-68
2023/10/02 15:29:16;;;;;;;31.63;17.20;;;;;;;;;;4944088;28;20062;-69
2023/10/02 15:31:43;;;;;;;26.85;17.02;;;;;;;;;;4950466;28;20507;-69
2023/10/02 15:34:12;;;;;;;27.42;17.20;;;;;;;;;;4929628;29;20369;-69
2023/10/02 15:36:39;;;;;;;27.70;17.02;;;;;;;;;;4927822;28;20035;-69
2023/10/02 15:39:05;;;;;;;27.60;17.85;;;;;;;;;;4943662;28;20047;-69
2023/10/02 15:41:32;;;;;;;28.27;17.90;;;;;;;;;;4931050;28;20162;-69
2023/10/02 15:43:58;;;;;;;24.35;16.63;;;;;;;;;;4947118;28;20031;-69
2023/10/02 15:46:27;;;;;;;26.85;16.35;;;;;;;;;;4924220;29;20055;-69
2023/10/02 15:48:54;;;;;;;27.00;16.67;;;;;;;;;;4925377;28;20063;-69
2023/10/02 15:51:22;;;;;;;26.67;16.77;;;;;;;;;;4937861;29;20511;-69
2023/10/02 15:53:50;;;;;;;29.02;15.70;;;;;;;;;;4946638;28;20392;-69
2023/10/02 15:56:17;;;;;;;23.45;15.75;;;;;;;;;;4930405;29;20154;-69
2023/10/02 15:58:43;;;;;;;27.88;17.50;;;;;;;;;;4936304;28;20126;-69
2023/10/02 16:01:15;;;;;;;26.80;16.38;;;;;;;;;;4941096;28;20047;-69
2023/10/02 16:03:42;;;;;;;28.27;16.30;;;;;;;;;;4949321;28;20126;-68
2023/10/02 16:06:08;;;;;;;24.08;15.55;;;;;;;;;;4953249;28;20043;-69
2023/10/02 16:08:34;;;;;;;28.30;16.50;;;;;;;;;;4947059;28;20043;-69
2023/10/02 16:11:00;;;;;;;28.38;17.42;;;;;;;;;;4944159;29;20125;-69
2023/10/02 16:13:26;;;;;;;29.98;17.48;;;;;;;;;;4935746;28;20465;-70
2023/10/02 16:15:53;;;;;;;28.98;16.15;;;;;;;;;;4923526;29;20138;-69
2023/10/02 16:18:20;;;;;;;27.25;16.60;;;;;;;;;;4938366;28;20043;-69
2023/10/02 16:20:47;;;;;;;30.55;16.92;;;;;;;;;;4931465;29;20132;-68